Time;durP1;ratioP1;P1;durP2;ratioP2;P2;SDS_P1;SDS_P2;PMS_P1;PMS_P2;Temp;Humidity;BMP_temperature;BMP_pressure;BME280_temperature;BME280_humidity;BME280_pressure;Samples;Min_cycle;Max_cycle;Signal;HPM_P1;HPM_P2
2023/08/15 00:02:09;;;;;;;182.70;175.02;;;;;;;29.70;40.74;101113.66;5088240;28;20032;-76
2023/08/15 00:04:35;;;;;;;180.80;173.13;;;;;;;29.67;40.82;101106.03;5091238;28;20103;-77
2023/08/15 00:07:04;;;;;;;178.02;170.70;;;;;;;29.64;40.78;101115.09;5088328;28;20052;-76
2023/08/15 00:09:30;;;;;;;178.40;170.98;;;;;;;29.63;40.66;101107.09;5092980;28;20040;-77
2023/08/15 00:11:55;;;;;;;177.35;170.10;;;;;;;29.60;40.45;101116.19;5091227;28;20040;-76
2023/08/15 00:14:20;;;;;;;177.27;170.07;;;;;;;29.57;40.75;101108.56;5091082;28;20093;-75
2023/08/15 00:16:46;;;;;;;179.38;171.80;;;;;;;29.54;40.80;101098.97;5091771;28;20042;-76
2023/08/15 00:19:11;;;;;;;179.73;172.38;;;;;;;29.51;40.78;101111.63;5090869;28;20031;-76
2023/08/15 00:21:37;;;;;;;183.10;175.80;;;;;;;29.50;40.66;101106.41;5091361;28;20473;-75
2023/08/15 00:24:02;;;;;;;178.82;171.05;;;;;;;29.47;40.61;101110.75;5094721;28;20035;-75
2023/08/15 00:26:28;;;;;;;181.45;174.02;;;;;;;29.44;40.67;101122.59;5091549;28;20055;-75
2023/08/15 00:28:53;;;;;;;177.18;169.98;;;;;;;29.41;40.53;101126.13;5091082;28;20111;-75
2023/08/15 00:31:18;;;;;;;180.70;172.90;;;;;;;29.39;40.57;101127.66;5090015;28;20468;-75
2023/08/15 00:33:44;;;;;;;175.57;168.27;;;;;;;29.37;40.83;101138.31;5091125;28;20044;-75
2023/08/15 00:36:09;;;;;;;173.02;165.52;;;;;;;29.34;40.62;101137.88;5086774;28;20036;-75
2023/08/15 00:38:34;;;;;;;175.75;168.48;;;;;;;29.32;40.54;101142.19;5090555;28;20043;-78
2023/08/15 00:41:00;;;;;;;172.07;165.07;;;;;;;29.29;40.72;101145.69;5096237;28;20035;-77
2023/08/15 00:43:25;;;;;;;173.93;166.63;;;;;;;29.27;40.94;101159.16;5093800;28;20031;-75
2023/08/15 00:45:51;;;;;;;173.32;166.30;;;;;;;29.24;40.70;101155.13;5088929;28;20115;-76
2023/08/15 00:48:17;;;;;;;178.35;171.10;;;;;;;29.22;40.66;101143.53;5090961;28;20040;-75
2023/08/15 00:50:47;;;;;;;177.38;169.93;;;;;;;29.21;40.99;101155.03;5089129;28;20043;-76
2023/08/15 00:53:13;;;;;;;171.90;164.68;;;;;;;29.17;40.84;101156.91;5081944;28;20059;-77
2023/08/15 00:55:39;;;;;;;177.10;169.70;;;;;;;29.14;40.68;101150.09;5075532;28;20056;-75
2023/08/15 00:58:04;;;;;;;177.05;169.82;;;;;;;29.11;40.84;101137.72;5090857;28;20487;-76
2023/08/15 01:00:30;;;;;;;171.55;164.43;;;;;;;29.09;40.69;101142.03;5090567;28;20475;-75
2023/08/15 01:02:55;;;;;;;171.75;164.70;;;;;;;29.06;40.73;101149.13;5089969;28;20394;-77
2023/08/15 01:05:21;;;;;;;165.25;158.35;;;;;;;29.04;40.72;101145.84;5088055;28;20064;-75
2023/08/15 01:07:47;;;;;;;171.43;164.02;;;;;;;29.00;40.62;101141.38;5090668;28;20035;-75
2023/08/15 01:10:13;;;;;;;173.82;166.57;;;;;;;28.98;40.82;101138.97;5091039;28;20043;-75
2023/08/15 01:12:58;;;;;;;167.23;160.13;;;;;;;28.95;40.70;101134.09;5089813;28;20122;-76
2023/08/15 01:15:26;;;;;;;169.10;162.20;;;;;;;28.93;40.44;101125.31;5086388;28;20051;-76
2023/08/15 01:18:01;;;;;;;169.48;162.10;;;;;;;28.90;40.61;101123.22;5086580;28;20062;-76
2023/08/15 01:20:30;;;;;;;167.82;160.60;;;;;;;28.88;40.71;101128.38;5091073;28;20035;-75
2023/08/15 01:23:00;;;;;;;165.02;158.15;;;;;;;28.85;40.94;101135.47;5088713;28;20028;-74
2023/08/15 01:25:26;;;;;;;166.93;160.10;;;;;;;28.83;40.76;101131.41;5088622;28;20032;-74
2023/08/15 01:27:51;;;;;;;166.63;159.75;;;;;;;28.80;40.77;101138.47;5088817;28;20073;-75
2023/08/15 01:30:21;;;;;;;172.48;165.35;;;;;;;28.79;40.74;101130.50;5090796;28;20032;-75
2023/08/15 01:33:03;;;;;;;163.63;156.85;;;;;;;28.77;40.72;101133.63;5089656;28;20036;-76
2023/08/15 01:35:33;;;;;;;165.90;159.00;;;;;;;28.74;40.79;101136.34;5087871;28;20484;-75
2023/08/15 01:38:19;;;;;;;164.82;158.07;;;;;;;28.70;40.69;101136.22;5086876;28;20016;-75
2023/08/15 01:40:49;;;;;;;167.50;160.50;;;;;;;28.67;40.68;101146.09;5090754;28;20112;-76
2023/08/15 01:43:16;;;;;;;164.57;157.77;;;;;;;28.64;40.72;101143.22;5090717;28;20460;-76
2023/08/15 01:45:42;;;;;;;162.03;154.87;;;;;;;28.62;40.78;101145.53;5088793;28;20036;-75
2023/08/15 01:48:07;;;;;;;166.02;158.77;;;;;;;28.61;40.85;101146.72;5085040;28;20028;-74
2023/08/15 01:50:33;;;;;;;166.23;159.43;;;;;;;28.57;40.94;101154.13;5089849;28;20375;-75
2023/08/15 01:52:58;;;;;;;162.02;155.43;;;;;;;28.55;40.76;101162.84;5097515;28;20040;-76
2023/08/15 01:55:24;;;;;;;162.50;155.82;;;;;;;28.53;40.96;101164.38;5088757;28;20456;-75
2023/08/15 01:57:49;;;;;;;158.40;151.70;;;;;;;28.51;40.89;101169.47;5089079;28;20068;-74
2023/08/15 02:00:15;;;;;;;161.95;154.75;;;;;;;28.47;41.12;101172.94;5088467;28;20067;-76
2023/08/15 02:02:40;;;;;;;166.23;159.38;;;;;;;28.45;40.82;101175.28;5089037;28;20028;-75
2023/08/15 02:05:06;;;;;;;162.60;155.82;;;;;;;28.44;40.86;101175.59;5089018;28;20024;-75
2023/08/15 02:07:32;;;;;;;164.15;157.35;;;;;;;28.41;40.82;101182.66;5088734;28;20107;-76
2023/08/15 02:09:57;;;;;;;163.35;156.57;;;;;;;28.37;40.85;101178.97;5089056;28;20028;-75
2023/08/15 02:12:23;;;;;;;164.45;157.57;;;;;;;28.36;40.76;101188.47;5089563;28;20115;-75
2023/08/15 02:14:48;;;;;;;160.32;153.52;;;;;;;28.33;41.05;101174.50;5090470;28;20188;-75
2023/08/15 02:17:13;;;;;;;159.52;152.60;;;;;;;28.31;41.05;101183.16;5083723;28;20375;-75
2023/08/15 02:19:39;;;;;;;158.90;152.27;;;;;;;28.29;40.97;101191.03;5088660;28;20341;-75
2023/08/15 02:22:04;;;;;;;159.20;152.48;;;;;;;28.26;41.04;101205.66;5089709;28;20060;-76
2023/08/15 02:24:29;;;;;;;158.40;151.50;;;;;;;28.24;40.97;101211.53;5091735;28;20036;-75
2023/08/15 02:26:55;;;;;;;166.95;159.95;;;;;;;28.23;40.87;101209.94;5088094;28;20033;-75
2023/08/15 02:29:20;;;;;;;160.52;153.85;;;;;;;28.21;41.12;101208.66;5093602;28;20457;-76
2023/08/15 02:31:47;;;;;;;165.63;158.48;;;;;;;28.19;40.84;101208.22;5090516;28;20428;-75
2023/08/15 02:34:15;;;;;;;162.35;155.63;;;;;;;28.16;41.17;101206.13;5091666;28;20066;-76
2023/08/15 02:36:40;;;;;;;158.15;151.27;;;;;;;28.14;41.07;101216.78;5095202;28;20056;-75
2023/08/15 02:39:06;;;;;;;160.48;153.57;;;;;;;28.11;41.02;101221.06;5090106;28;20436;-76
2023/08/15 02:41:31;;;;;;;162.15;155.15;;;;;;;28.10;41.13;101227.81;5093408;28;20136;-75
2023/08/15 02:43:56;;;;;;;158.88;152.07;;;;;;;28.07;40.89;101217.38;5092789;28;20032;-75
2023/08/15 02:46:24;;;;;;;155.55;148.75;;;;;;;28.04;41.20;101210.53;5091931;28;20036;-76
2023/08/15 02:48:51;;;;;;;158.90;152.10;;;;;;;28.02;41.12;101214.84;5092518;28;20054;-75
2023/08/15 02:51:16;;;;;;;156.85;150.40;;;;;;;28.00;41.06;101201.31;5094556;28;20028;-76
2023/08/15 02:53:41;;;;;;;160.07;153.18;;;;;;;27.98;41.39;101205.59;5092176;28;20033;-77
2023/08/15 02:56:07;;;;;;;161.00;153.90;;;;;;;27.96;40.96;101200.38;5092106;28;20195;-75
2023/08/15 02:58:32;;;;;;;156.13;149.35;;;;;;;27.94;41.25;101201.91;5093604;28;20105;-75
2023/08/15 03:00:57;;;;;;;155.77;149.27;;;;;;;27.92;41.26;101201.44;5092470;28;20042;-76
2023/08/15 03:03:23;;;;;;;155.32;148.73;;;;;;;27.89;41.36;101200.16;5093078;28;20388;-75
2023/08/15 03:05:48;;;;;;;154.00;147.45;;;;;;;27.88;41.35;101194.97;5090476;28;20495;-75
2023/08/15 03:08:13;;;;;;;153.75;146.75;;;;;;;27.85;41.46;101198.47;5091560;28;20034;-76
2023/08/15 03:10:39;;;;;;;162.27;155.35;;;;;;;27.84;41.29;101194.84;5093325;28;20543;-75
2023/08/15 03:13:05;;;;;;;157.93;151.13;;;;;;;27.81;41.17;101188.03;5094057;28;20059;-75
2023/08/15 03:15:30;;;;;;;156.75;150.07;;;;;;;27.80;41.33;101202.25;5092284;28;20106;-75
2023/08/15 03:17:57;;;;;;;152.45;145.75;;;;;;;27.77;41.49;101203.75;5091852;28;20124;-75
2023/08/15 03:20:22;;;;;;;151.30;144.73;;;;;;;27.75;41.39;101202.50;5093051;28;20028;-73
2023/08/15 03:22:47;;;;;;;154.27;147.80;;;;;;;27.72;41.42;101192.91;5092695;28;20081;-75
2023/08/15 03:25:13;;;;;;;155.25;148.48;;;;;;;27.71;41.13;101198.78;5093407;28;20032;-74
2023/08/15 03:27:38;;;;;;;153.43;146.80;;;;;;;27.69;41.50;101193.56;5092410;28;20055;-76
2023/08/15 03:30:05;;;;;;;157.95;151.25;;;;;;;27.67;41.43;101198.69;5092689;28;20114;-76
2023/08/15 03:32:30;;;;;;;149.00;142.70;;;;;;;27.65;41.41;101192.66;5088678;28;20052;-76
2023/08/15 03:34:55;;;;;;;152.82;146.20;;;;;;;27.62;41.42;101190.59;5092378;28;20529;-75
2023/08/15 03:37:22;;;;;;;150.90;144.25;;;;;;;27.60;41.30;101187.34;5090768;28;20040;-76
2023/08/15 03:39:47;;;;;;;150.00;143.32;;;;;;;27.58;41.50;101184.91;5095548;28;20040;-75
2023/08/15 03:42:12;;;;;;;148.82;142.18;;;;;;;27.57;41.50;101196.38;5092354;28;20039;-76
2023/08/15 03:44:38;;;;;;;152.73;146.27;;;;;;;27.55;41.71;101204.22;5089092;28;20111;-76
2023/08/15 03:47:03;;;;;;;149.63;143.10;;;;;;;27.52;41.63;101208.50;5093760;28;20039;-75
2023/08/15 03:49:29;;;;;;;152.13;145.23;;;;;;;27.51;41.97;101217.16;5089473;28;20101;-78
2023/08/15 03:51:54;;;;;;;149.38;142.98;;;;;;;27.50;41.58;101221.91;5095015;28;20048;-76
2023/08/15 03:54:19;;;;;;;149.85;143.50;;;;;;;27.47;41.57;101227.31;5093254;28;20085;-75
2023/08/15 03:56:45;;;;;;;150.65;144.20;;;;;;;27.45;41.68;101226.88;5090419;28;20036;-75
2023/08/15 03:59:11;;;;;;;151.30;145.02;;;;;;;27.42;41.66;101231.16;5090599;28;20024;-74
2023/08/15 04:01:36;;;;;;;150.07;143.43;;;;;;;27.39;41.66;101226.28;5090882;28;20032;-75
2023/08/15 04:04:03;;;;;;;146.95;140.70;;;;;;;27.37;41.79;101229.41;5091296;28;20043;-74
2023/08/15 04:06:28;;;;;;;154.10;147.63;;;;;;;27.37;41.72;101231.41;5093017;28;20052;-75
2023/08/15 04:08:53;;;;;;;149.80;143.40;;;;;;;27.34;41.84;101227.34;5091355;28;20054;-73
2023/08/15 04:11:19;;;;;;;146.15;139.77;;;;;;;27.32;41.91;101221.31;5089329;28;20044;-74
2023/08/15 04:13:44;;;;;;;145.98;139.45;;;;;;;27.30;41.93;101212.53;5089223;28;20032;-74
2023/08/15 04:16:10;;;;;;;147.10;140.85;;;;;;;27.28;41.71;101212.06;5100401;28;20036;-75
2023/08/15 04:18:35;;;;;;;153.48;146.85;;;;;;;27.26;41.67;101208.03;5092991;28;20498;-75
2023/08/15 04:21:01;;;;;;;151.88;145.48;;;;;;;27.24;41.83;101213.09;5089362;28;20039;-75
2023/08/15 04:23:26;;;;;;;145.55;139.05;;;;;;;27.22;41.83;101215.44;5091519;28;20086;-76
2023/08/15 04:25:52;;;;;;;146.82;140.43;;;;;;;27.19;41.80;101219.69;5091998;28;20044;-76
2023/08/15 04:28:17;;;;;;;146.27;139.98;;;;;;;27.17;41.63;101214.44;5092147;28;20132;-77
2023/08/15 04:30:43;;;;;;;151.35;144.77;;;;;;;27.15;41.81;101221.50;5089183;28;20093;-77
2023/08/15 04:33:08;;;;;;;145.50;139.25;;;;;;;27.13;42.01;101230.16;5089390;28;20036;-76
2023/08/15 04:35:34;;;;;;;146.95;140.45;;;;;;;27.11;41.70;101223.31;5091046;28;20043;-74
2023/08/15 04:38:00;;;;;;;145.93;139.52;;;;;;;27.09;41.93;101220.91;5088047;28;20068;-75
2023/08/15 04:40:33;;;;;;;145.25;138.93;;;;;;;27.06;41.98;101232.66;5088393;28;20024;-76
2023/08/15 04:42:59;;;;;;;141.45;135.38;;;;;;;27.04;41.74;101246.09;5082980;28;20039;-76
2023/08/15 04:45:25;;;;;;;145.45;139.18;;;;;;;27.02;41.87;101244.81;5092013;28;20032;-76
2023/08/15 04:47:52;;;;;;;151.70;145.20;;;;;;;26.99;41.86;101232.44;5090868;28;20491;-79
2023/08/15 04:50:17;;;;;;;147.88;141.45;;;;;;;26.99;41.98;101251.84;5087912;28;20460;-79
2023/08/15 04:52:42;;;;;;;140.43;134.25;;;;;;;26.96;41.88;101255.28;5089693;28;20043;-76
2023/08/15 04:55:10;;;;;;;143.65;137.48;;;;;;;26.94;42.03;101252.06;5090855;28;20055;-77
2023/08/15 04:57:37;;;;;;;147.88;141.68;;;;;;;26.91;41.98;101255.50;5091627;28;20460;-77
2023/08/15 05:00:08;;;;;;;143.15;136.85;;;;;;;26.89;42.06;101263.38;5091495;28;20043;-76
2023/08/15 05:02:34;;;;;;;141.52;135.27;;;;;;;26.88;42.02;101267.28;5083790;28;20476;-77
2023/08/15 05:05:00;;;;;;;140.02;134.10;;;;;;;26.86;41.91;101269.56;5090781;28;20032;-74
2023/08/15 05:07:26;;;;;;;138.15;132.05;;;;;;;26.85;42.29;101271.53;5090495;28;20464;-78
2023/08/15 05:09:51;;;;;;;148.65;142.35;;;;;;;26.83;42.00;101278.56;5090954;28;20028;-78
2023/08/15 05:12:16;;;;;;;142.70;136.45;;;;;;;26.80;42.03;101277.28;5085326;28;20123;-77
2023/08/15 05:14:42;;;;;;;142.65;136.45;;;;;;;26.78;42.00;101276.81;5088648;28;20032;-74
2023/08/15 05:17:07;;;;;;;141.98;135.88;;;;;;;26.76;42.18;101285.50;5090582;28;20032;-78
2023/08/15 05:19:32;;;;;;;140.20;134.15;;;;;;;26.74;42.07;101287.78;5091271;28;20474;-80
2023/08/15 05:21:58;;;;;;;143.77;137.32;;;;;;;26.73;42.01;101288.13;5084516;28;20040;-78
2023/08/15 05:24:25;;;;;;;138.68;132.40;;;;;;;26.72;42.15;101292.06;5087575;28;20035;-74
2023/08/15 05:26:50;;;;;;;143.90;137.57;;;;;;;26.70;42.20;101295.16;5086437;28;20541;-74
2023/08/15 05:29:16;;;;;;;136.48;130.63;;;;;;;26.68;42.13;101291.91;5087344;28;20036;-77
2023/08/15 05:31:41;;;;;;;138.88;132.73;;;;;;;26.67;42.17;101295.84;5082911;28;20055;-77
2023/08/15 05:34:06;;;;;;;138.73;132.43;;;;;;;26.66;42.30;101294.22;5084247;28;20032;-76
2023/08/15 05:36:32;;;;;;;141.20;135.02;;;;;;;26.65;42.19;101289.00;5087128;28;20164;-75
2023/08/15 05:38:57;;;;;;;143.27;136.98;;;;;;;26.63;42.01;101289.34;5090362;28;20456;-77
2023/08/15 05:41:23;;;;;;;138.18;132.07;;;;;;;26.63;42.20;101283.00;5085027;28;20123;-77
2023/08/15 05:43:48;;;;;;;140.52;134.48;;;;;;;26.62;41.91;101295.22;5086451;28;20028;-77
2023/08/15 05:46:14;;;;;;;142.25;136.05;;;;;;;26.62;42.12;101293.25;5089710;28;20062;-76
2023/08/15 05:48:39;;;;;;;142.23;136.13;;;;;;;26.61;42.14;101286.13;5087516;28;20163;-75
2023/08/15 05:51:04;;;;;;;137.68;131.65;;;;;;;26.61;42.01;101288.88;5082702;28;20128;-74
2023/08/15 05:53:30;;;;;;;136.70;130.82;;;;;;;26.60;42.16;101301.09;5084317;28;20162;-76
2023/08/15 05:55:55;;;;;;;138.38;132.18;;;;;;;26.60;42.07;101306.66;5088675;28;20035;-74
2023/08/15 05:58:21;;;;;;;139.75;133.38;;;;;;;26.60;42.13;101320.50;5083231;28;20090;-75
2023/08/15 06:00:46;;;;;;;138.38;132.27;;;;;;;26.59;42.14;101324.44;5103638;28;20536;-74
2023/08/15 06:03:12;;;;;;;137.10;131.30;;;;;;;26.58;41.89;101324.75;5093962;28;20075;-79
2023/08/15 06:05:37;;;;;;;135.90;129.93;;;;;;;26.56;42.03;101319.56;5093635;28;20059;-75
2023/08/15 06:08:03;;;;;;;141.60;135.45;;;;;;;26.55;42.12;101320.69;5090846;28;20101;-74
2023/08/15 06:10:28;;;;;;;140.18;134.07;;;;;;;26.55;42.29;101326.25;5099326;28;20035;-74
2023/08/15 06:12:54;;;;;;;138.43;132.32;;;;;;;26.53;42.30;101332.13;5093938;28;20040;-72
2023/08/15 06:15:19;;;;;;;134.73;128.75;;;;;;;26.51;42.35;101337.16;5088906;28;20028;-72
2023/08/15 06:17:45;;;;;;;136.00;130.02;;;;;;;26.52;42.07;101332.44;5093489;28;20107;-75
2023/08/15 06:20:10;;;;;;;132.82;126.93;;;;;;;26.51;42.17;101348.25;5094760;28;20456;-73
2023/08/15 06:22:36;;;;;;;133.30;127.20;;;;;;;26.51;42.26;101344.66;5103477;28;20036;-74
2023/08/15 06:25:02;;;;;;;137.40;131.25;;;;;;;26.51;42.41;101358.50;5092139;28;20036;-73
2023/08/15 06:27:27;;;;;;;130.77;124.97;;;;;;;26.51;42.29;101347.41;5084310;28;20036;-73
2023/08/15 06:29:53;;;;;;;137.23;131.20;;;;;;;26.52;42.11;101354.59;5094671;28;20032;-73
2023/08/15 06:32:29;;;;;;;137.98;131.88;;;;;;;26.52;42.27;101357.38;5093207;28;20106;-74
2023/08/15 06:34:55;;;;;;;135.10;129.30;;;;;;;26.52;42.38;101354.59;5093964;28;20036;-72
2023/08/15 06:37:21;;;;;;;134.75;128.80;;;;;;;26.52;42.40;101358.19;5089246;28;20044;-73
2023/08/15 06:39:46;;;;;;;134.20;128.45;;;;;;;26.52;42.38;101354.59;5094452;28;20028;-73
2023/08/15 06:42:12;;;;;;;134.98;128.98;;;;;;;26.54;42.33;101360.66;5090890;28;20384;-75
2023/08/15 06:44:38;;;;;;;135.85;129.95;;;;;;;26.54;42.17;101361.44;5084370;28;20082;-73
2023/08/15 06:47:03;;;;;;;134.30;128.15;;;;;;;26.54;42.58;101358.69;5082172;28;20036;-76
2023/08/15 06:49:29;;;;;;;138.25;132.35;;;;;;;26.54;42.53;101364.22;5089684;28;20040;-74
2023/08/15 06:51:54;;;;;;;143.57;137.27;;;;;;;26.55;42.20;101365.84;5093576;28;20042;-75
2023/08/15 06:54:20;;;;;;;135.80;129.82;;;;;;;26.55;42.25;101365.03;5077960;28;20541;-73
2023/08/15 06:56:46;;;;;;;136.80;131.00;;;;;;;26.54;42.64;101367.00;5091819;28;20093;-76
2023/08/15 06:59:11;;;;;;;135.00;129.10;;;;;;;26.55;42.41;101365.84;5090324;28;20029;-73
2023/08/15 07:01:36;;;;;;;133.32;127.32;;;;;;;26.56;42.63;101363.91;5092926;28;20095;-73
2023/08/15 07:04:02;;;;;;;133.02;127.03;;;;;;;26.57;42.36;101364.69;5086828;28;20110;-74
2023/08/15 07:06:27;;;;;;;132.63;127.00;;;;;;;26.56;42.50;101363.91;5093998;28;20449;-73
2023/08/15 07:08:53;;;;;;;140.50;134.50;;;;;;;26.58;42.68;101369.88;5091174;28;20036;-73
2023/08/15 07:11:18;;;;;;;128.68;123.18;;;;;;;26.58;42.65;101364.34;5097211;28;20055;-72
2023/08/15 07:13:44;;;;;;;131.77;126.15;;;;;;;26.59;42.51;101356.88;5083252;28;20154;-73
2023/08/15 07:16:09;;;;;;;133.77;127.70;;;;;;;26.58;42.81;101356.03;5093219;28;20041;-75
2023/08/15 07:18:35;;;;;;;133.88;127.72;;;;;;;26.58;42.76;101369.88;5089117;28;20114;-73
2023/08/15 07:21:02;;;;;;;131.45;125.80;;;;;;;26.59;42.71;101365.19;5102155;28;20490;-75
2023/08/15 07:23:28;;;;;;;135.60;129.60;;;;;;;26.60;42.85;101373.16;5093491;28;20084;-74
2023/08/15 07:25:53;;;;;;;133.27;127.28;;;;;;;26.61;42.92;101373.94;5091442;28;20044;-74
2023/08/15 07:28:19;;;;;;;133.70;127.85;;;;;;;26.61;42.85;101380.31;5091133;28;20123;-74
2023/08/15 07:30:48;;;;;;;135.02;128.85;;;;;;;26.62;43.20;101375.59;5085976;28;20041;-73
2023/08/15 07:33:14;;;;;;;132.02;126.32;;;;;;;26.65;42.95;101380.44;5091361;28;20043;-73
2023/08/15 07:35:40;;;;;;;138.73;132.80;;;;;;;26.65;42.90;101375.72;5080243;28;20036;-74
2023/08/15 07:38:06;;;;;;;132.68;126.78;;;;;;;26.66;43.09;101382.91;5087636;28;20037;-75
2023/08/15 07:40:32;;;;;;;132.32;126.63;;;;;;;26.68;42.79;101385.31;5084391;28;20086;-74
2023/08/15 07:42:57;;;;;;;135.32;129.23;;;;;;;26.69;43.11;101395.28;5093197;28;20444;-75
2023/08/15 07:45:23;;;;;;;135.23;129.45;;;;;;;26.70;43.30;101383.81;5091549;28;20130;-76
2023/08/15 07:47:51;;;;;;;132.48;126.47;;;;;;;26.73;43.31;101382.34;5091889;28;20030;-76
2023/08/15 07:50:27;;;;;;;137.35;131.45;;;;;;;26.76;43.24;101389.97;5082713;28;20036;-74
2023/08/15 07:52:54;;;;;;;134.35;128.43;;;;;;;26.77;43.56;101389.66;5096975;28;20032;-74
2023/08/15 07:55:20;;;;;;;141.65;135.73;;;;;;;26.79;43.08;101392.09;5092886;28;20123;-74
2023/08/15 07:57:46;;;;;;;134.82;128.95;;;;;;;26.82;43.32;101401.69;5091832;28;20095;-72
2023/08/15 08:00:13;;;;;;;133.90;128.05;;;;;;;26.83;43.24;101408.84;5092325;28;20028;-74
2023/08/15 08:02:43;;;;;;;137.27;131.38;;;;;;;26.85;43.42;101403.78;5084891;28;20067;-75
2023/08/15 08:05:10;;;;;;;134.70;128.90;;;;;;;26.87;43.57;101409.81;5087728;28;20439;-75
2023/08/15 08:07:36;;;;;;;131.45;125.82;;;;;;;26.90;43.47;101409.94;5081532;28;20048;-74
2023/08/15 08:10:02;;;;;;;136.50;130.68;;;;;;;26.92;43.64;101415.97;5091292;28;20074;-74
2023/08/15 08:12:29;;;;;;;136.00;129.95;;;;;;;26.94;43.43;101421.19;5090066;28;20447;-75
2023/08/15 08:14:54;;;;;;;136.73;130.82;;;;;;;26.97;43.95;101409.41;5092578;28;20038;-74
2023/08/15 08:17:19;;;;;;;135.00;129.20;;;;;;;26.99;44.09;101412.66;5092472;28;20036;-75
2023/08/15 08:19:45;;;;;;;140.68;134.70;;;;;;;27.02;44.01;101413.94;5092272;28;20036;-75
2023/08/15 08:22:10;;;;;;;137.00;130.82;;;;;;;27.04;43.82;101408.84;5089215;28;20040;-73
2023/08/15 08:24:35;;;;;;;137.23;131.27;;;;;;;27.06;44.09;101412.91;5091434;28;20032;-74
2023/08/15 08:27:01;;;;;;;140.48;134.38;;;;;;;27.09;43.88;101415.03;5091214;28;20029;-74
2023/08/15 08:29:26;;;;;;;139.30;132.95;;;;;;;27.11;43.91;101418.25;5089081;28;20109;-75
2023/08/15 08:31:52;;;;;;;144.35;137.93;;;;;;;27.14;44.04;101419.53;5090748;28;20047;-76
2023/08/15 08:34:17;;;;;;;136.65;130.75;;;;;;;27.17;44.09;101428.00;5085117;28;20469;-75
2023/08/15 08:36:43;;;;;;;144.27;138.02;;;;;;;27.19;44.29;101422.97;5094682;28;20085;-75
2023/08/15 08:39:09;;;;;;;138.57;132.63;;;;;;;27.23;44.22;101413.94;5072694;28;20425;-76
2023/08/15 08:41:38;;;;;;;144.70;138.30;;;;;;;27.27;44.12;101417.69;5072145;28;20040;-76
2023/08/15 08:44:04;;;;;;;143.00;136.73;;;;;;;27.29;44.15;101415.34;5090587;28;20050;-74
2023/08/15 08:46:30;;;;;;;138.57;132.57;;;;;;;27.32;44.20;101423.00;5090859;28;20058;-73
2023/08/15 08:48:56;;;;;;;145.02;138.63;;;;;;;27.35;44.44;101425.09;5090451;28;20414;-73
2023/08/15 08:51:24;;;;;;;140.55;134.48;;;;;;;27.37;44.48;101426.38;5083070;28;20050;-73
2023/08/15 08:53:49;;;;;;;139.35;133.38;;;;;;;27.41;44.43;101424.53;5091439;28;20036;-73
2023/08/15 08:56:18;;;;;;;143.10;137.00;;;;;;;27.45;44.45;101424.69;5088135;28;20043;-74
2023/08/15 08:58:49;;;;;;;138.10;132.30;;;;;;;27.48;44.37;101425.97;5092124;28;20499;-74
2023/08/15 09:01:16;;;;;;;141.63;135.52;;;;;;;27.51;44.38;101428.03;5091496;28;20024;-75
2023/08/15 09:03:42;;;;;;;144.68;138.38;;;;;;;27.54;44.37;101432.91;5092655;28;20059;-73
2023/08/15 09:06:08;;;;;;;143.98;137.68;;;;;;;27.58;44.58;101433.84;5089121;28;20044;-73
2023/08/15 09:08:34;;;;;;;141.73;135.45;;;;;;;27.60;44.36;101432.38;5086480;28;20121;-75
2023/08/15 09:11:00;;;;;;;139.55;133.52;;;;;;;27.63;44.47;101442.78;5089940;28;20048;-74
2023/08/15 09:13:25;;;;;;;145.18;138.98;;;;;;;27.67;44.49;101442.09;5090653;28;20410;-75
2023/08/15 09:15:55;;;;;;;140.70;134.52;;;;;;;27.70;44.56;101441.41;5091500;28;20085;-74
2023/08/15 09:18:22;;;;;;;140.38;134.18;;;;;;;27.74;44.50;101437.59;5084588;28;20044;-75
2023/08/15 09:20:48;;;;;;;139.87;133.87;;;;;;;27.77;44.68;101447.19;5093049;28;20031;-74
2023/08/15 09:23:16;;;;;;;150.52;144.13;;;;;;;27.80;44.74;101447.34;5088862;28;20030;-73
2023/08/15 09:25:41;;;;;;;144.25;138.05;;;;;;;27.85;44.76;101437.22;5091197;28;20028;-75
2023/08/15 09:28:07;;;;;;;145.13;138.93;;;;;;;27.88;44.59;101445.66;5090561;28;20032;-75
2023/08/15 09:30:33;;;;;;;143.93;137.77;;;;;;;27.92;44.65;101443.81;5091228;28;20059;-74
2023/08/15 09:33:00;;;;;;;146.38;140.15;;;;;;;27.95;44.54;101442.31;5091457;28;20036;-75
2023/08/15 09:35:26;;;;;;;152.55;146.00;;;;;;;27.97;44.69;101451.94;5085618;28;20032;-75
2023/08/15 09:37:52;;;;;;;143.13;137.00;;;;;;;28.01;44.70;101444.50;5085419;28;20029;-76
2023/08/15 09:40:23;;;;;;;151.30;144.80;;;;;;;28.04;44.68;101440.22;5085554;28;20032;-75
2023/08/15 09:42:48;;;;;;;142.07;136.13;;;;;;;28.08;44.83;101448.72;5092087;28;20024;-75
2023/08/15 09:45:15;;;;;;;152.63;146.13;;;;;;;28.12;44.79;101444.88;5088367;28;20141;-74
2023/08/15 09:47:43;;;;;;;149.95;143.52;;;;;;;28.17;45.05;101452.16;5090466;28;20055;-75
2023/08/15 09:50:10;;;;;;;151.02;144.52;;;;;;;28.19;44.92;101445.13;5078354;28;20039;-76
2023/08/15 09:52:40;;;;;;;146.13;139.90;;;;;;;28.25;44.60;101451.28;5090885;28;20040;-75
2023/08/15 09:55:09;;;;;;;153.60;147.05;;;;;;;28.27;44.96;101446.16;5085163;28;20325;-75
2023/08/15 09:57:35;;;;;;;149.05;142.68;;;;;;;28.31;44.97;101447.09;5090827;28;20081;-75
2023/08/15 10:00:00;;;;;;;149.52;142.90;;;;;;;28.34;44.97;101451.16;5088030;28;20241;-76
2023/08/15 10:02:26;;;;;;;155.13;148.60;;;;;;;28.36;44.78;101432.97;5090304;28;20064;-75
2023/08/15 10:05:03;;;;;;;152.73;146.38;;;;;;;28.41;44.77;101446.63;5088481;28;20036;-75
2023/08/15 10:07:32;;;;;;;154.18;147.73;;;;;;;28.45;45.08;101457.88;5089942;28;20040;-75
2023/08/15 10:10:01;;;;;;;149.73;143.18;;;;;;;28.50;45.05;101451.28;5086852;28;20040;-74
2023/08/15 10:12:27;;;;;;;154.80;148.10;;;;;;;28.52;44.92;101458.13;5086999;28;20055;-75
2023/08/15 10:14:56;;;;;;;162.73;156.05;;;;;;;28.55;45.10;101457.44;5087645;28;20383;-74
2023/08/15 10:17:21;;;;;;;160.20;153.48;;;;;;;28.59;45.08;101457.56;5099342;28;20100;-75
2023/08/15 10:19:48;;;;;;;154.38;147.40;;;;;;;28.63;44.98;101453.72;5087493;28;20081;-74
2023/08/15 10:22:18;;;;;;;158.13;151.32;;;;;;;28.66;44.92;101460.56;5075668;28;20028;-73
2023/08/15 10:24:44;;;;;;;156.38;149.77;;;;;;;28.69;45.25;101459.84;5090164;28;20130;-72
2023/08/15 10:27:10;;;;;;;158.52;151.93;;;;;;;28.73;45.12;101480.25;5090087;28;20036;-73
2023/08/15 10:29:57;;;;;;;161.68;154.88;;;;;;;28.75;45.40;101483.47;5091384;28;20043;-73
2023/08/15 10:32:24;;;;;;;160.18;153.48;;;;;;;28.80;45.32;101488.78;5087570;28;20067;-74
2023/08/15 10:34:53;;;;;;;156.00;149.45;;;;;;;28.84;45.10;101492.50;5086504;28;20032;-73
2023/08/15 10:37:28;;;;;;;158.55;151.60;;;;;;;28.86;45.20;101495.75;5088974;28;20028;-73
2023/08/15 10:40:13;;;;;;;160.55;153.77;;;;;;;28.89;45.21;101492.28;5091033;28;20078;-73
2023/08/15 10:43:06;;;;;;;153.77;147.32;;;;;;;28.92;45.53;101496.31;5087840;28;20119;-73
2023/08/15 10:45:55;;;;;;;154.32;147.90;;;;;;;28.95;45.39;101487.28;5086428;28;20044;-73
2023/08/15 10:48:47;;;;;;;160.57;153.77;;;;;;;28.99;45.32;101484.63;5092204;28;20456;-74
2023/08/15 10:51:23;;;;;;;167.57;160.48;;;;;;;29.02;45.25;101490.28;5093481;28;20032;-75
2023/08/15 10:53:50;;;;;;;162.20;155.45;;;;;;;29.07;45.45;101489.25;5081877;28;20514;-73